Lebanon, VA (24266)

7:05 AM EST on December 05, 2016 (GMT -0500)
White's Mill | | Change Station

Elev 2113 ft 36.77 °N, 81.98 °W | Updated 6 seconds ago

Overcast
Overcast
42.7 °F
Feels Like 43 °F
N
0.0
Wind Variable Wind from WSW
Gusts 0.0 mph

Today
High -- | Low -- °F
--% Chance of Precip.
Yesterday
High -- | Low -- °F
Precip. -- in
Pressure 30.03 in
Visibility 2.0 miles
Clouds Overcast 300 ft
Windchill 43 °F
Dew Point 42 °F
Humidity 97%
Rainfall 0.05 in
Snow Depth Not available.
7:26 AM 5:11 PM
Waxing Crescent, 31% visible
METAR KVJI 051155Z AUTO 00000KT 2SM BR OVC003 08/08 A3003 RMK AO2 60005 70036 T00750075 10077 20075
Pressure 30.03 in
Visibility 2.0 miles
Clouds Overcast 300 ft
Windchill 43 °F
Dew Point 42 °F
Humidity 97%
Rainfall 0.05 in
Snow Depth Not available.
7:26 AM 5:11 PM
Waxing Crescent, 31% visible
METAR KVJI 051155Z AUTO 00000KT 2SM BR OVC003 08/08 A3003 RMK AO2 60005 70036 T00750075 10077 20075

10-Day Weather Forecast

Almanac

Astronomy

Dec. 05, 2016 Rise Set
Actual Time
Civil Twilight
Nautical Twilight
Astronomical Twilight
Moon
Length of Visible Light
Length of Day
Tomorrow will be .
, % of the Moon is Illuminated

Today's Extremes

State Highs State Lows

Community

WunderPhotos

Upload Photos

1,955,779 photos uploaded!

WunderBlog® & News

Nearby

Air Quality

  Air Quality AQ Index Pollutant
Not available.

Snow Depth

Station Depth Elevation

Earthquake Activity

City Distance Mag. Time & Date
Minimum magnitude displayed is 2.5.

Coastal Water Temperatures

Place Temperature

Stations

Nearby Weather Stations

Station Location Temp. Windchill Dew Point Humidity Wind Precip. Elev Updated Type
                   

Watches & Warnings

There are currently no watches in effect.